Ralston, Wyoming
Current Conditions -  °F | °C
As of 12:15 AM on Saturday 29 Nov 2014 (Local Time) from KPOY Reporting Station
Clear Clear  
Wind Chill: 40°   Ceiling: Unl
Heat Index: 46°   Visibility: 10mi
Dew Point:   Wind: 14mph
Humidity: 22%   Direction: 250°WSW
Pressure: 29.47"   Gusts: 21mph
Location:  44.72°N, 108.87°W
Report Text: KPOY 290715Z AUTO 25012G18KT 10SM CLR 08/M13 A2947 RMK AO2
Loading
Personal Weather Stations






























Interactive Weather Map New forecast layout! Learn more

10-Day Weather Forecast

Advertisements
Track Severe Weather on mobile